EZY576X EGGW-EGAC
Flight info
| Callsign | EZY576X |
|---|---|
| Flight time | 0h 53m |
| Altitude | 32000 |
| Route | OLNEY T420 TNT UL28 RODOL UM65 TENSO L603 BELOX DCT REMSI DCT NINEB M148 MAGEE |
| Aircraft | A319/M-SDE3FGHIRWY/LB1 |
Departure
| Time | 2026-04-17 09:56 |
|---|---|
| Airport | London Luton Airport (EGGW) |
Arrival
| Time | 2026-04-17 10:49 |
|---|---|
| Airport | George Best Belfast City Airport (EGAC) |
| Time | Latitude | Longitude | Altitude | Speed | Heading |
|---|---|---|---|---|---|
| 2026-04-17 09:38 | 51.87669 | -0.37240 | 521 ft | 0 kts | 344° |
| 2026-04-17 09:47 | 51.87668 | -0.37239 | 521 ft | 3 kts | 344° |
| 2026-04-17 09:47 | 51.87650 | -0.37232 | 521 ft | 3 kts | 344° |
| 2026-04-17 09:47 | 51.87632 | -0.37224 | 521 ft | 3 kts | 342° |
| 2026-04-17 09:47 | 51.87614 | -0.37219 | 522 ft | 3 kts | 5° |
| 2026-04-17 09:48 | 51.87595 | -0.37226 | 522 ft | 3 kts | 33° |
| 2026-04-17 09:48 | 51.87582 | -0.37248 | 522 ft | 3 kts | 78° |
| 2026-04-17 09:48 | 51.87581 | -0.37255 | 522 ft | 0 kts | 79° |
| 2026-04-17 09:51 | 51.87582 | -0.37252 | 522 ft | 1 kts | 79° |
| 2026-04-17 09:51 | 51.87584 | -0.37228 | 522 ft | 3 kts | 80° |
| 2026-04-17 09:52 | 51.87593 | -0.37179 | 522 ft | 6 kts | 74° |
| 2026-04-17 09:52 | 51.87607 | -0.37100 | 522 ft | 9 kts | 73° |
| 2026-04-17 09:52 | 51.87626 | -0.36994 | 522 ft | 11 kts | 73° |
| 2026-04-17 09:52 | 51.87642 | -0.36892 | 526 ft | 9 kts | 76° |
| 2026-04-17 09:53 | 51.87663 | -0.36768 | 523 ft | 14 kts | 74° |
| 2026-04-17 09:53 | 51.87693 | -0.36594 | 521 ft | 18 kts | 74° |
| 2026-04-17 09:53 | 51.87730 | -0.36382 | 518 ft | 21 kts | 73° |
| 2026-04-17 09:53 | 51.87772 | -0.36139 | 519 ft | 19 kts | 75° |
| 2026-04-17 09:54 | 51.87749 | -0.35957 | 516 ft | 16 kts | 148° |
| 2026-04-17 09:54 | 51.87734 | -0.35948 | 516 ft | 0 kts | 165° |
| 2026-04-17 09:54 | 51.87729 | -0.35946 | 516 ft | 2 kts | 165° |
| 2026-04-17 09:55 | 51.87709 | -0.35937 | 516 ft | 4 kts | 165° |
| 2026-04-17 09:55 | 51.87672 | -0.35919 | 516 ft | 7 kts | 162° |
| 2026-04-17 09:55 | 51.87626 | -0.35939 | 516 ft | 8 kts | 226° |
| 2026-04-17 09:55 | 51.87603 | -0.36042 | 516 ft | 13 kts | 256° |
| 2026-04-17 09:56 | 51.87517 | -0.36519 | 524 ft | 85 kts | 255° |
| 2026-04-17 09:56 | 51.87300 | -0.37855 | 584 ft | 149 kts | 253° |
| 2026-04-17 09:56 | 51.87032 | -0.39549 | 1186 ft | 164 kts | 252° |
| 2026-04-17 09:56 | 51.86642 | -0.41446 | 1691 ft | 190 kts | 236° |
| 2026-04-17 09:57 | 51.85601 | -0.42936 | 2319 ft | 214 kts | 211° |
| 2026-04-17 09:57 | 51.84221 | -0.44160 | 3162 ft | 233 kts | 208° |
| 2026-04-17 09:57 | 51.82753 | -0.45371 | 4158 ft | 241 kts | 210° |
| 2026-04-17 09:57 | 51.81449 | -0.47078 | 5064 ft | 246 kts | 233° |
| 2026-04-17 09:58 | 51.80761 | -0.49638 | 6012 ft | 252 kts | 253° |
| 2026-04-17 09:58 | 51.80316 | -0.52355 | 6952 ft | 256 kts | 254° |
| 2026-04-17 09:58 | 51.80002 | -0.55202 | 7832 ft | 262 kts | 270° |
| 2026-04-17 09:58 | 51.80593 | -0.58012 | 8697 ft | 274 kts | 304° |
| 2026-04-17 09:59 | 51.82111 | -0.59934 | 9612 ft | 286 kts | 332° |
| 2026-04-17 09:59 | 51.84029 | -0.60985 | 10341 ft | 301 kts | 343° |
| 2026-04-17 09:59 | 51.86161 | -0.61707 | 10690 ft | 324 kts | 347° |
| 2026-04-17 09:59 | 51.88417 | -0.62351 | 11335 ft | 334 kts | 347° |
| 2026-04-17 10:00 | 51.90722 | -0.63053 | 12055 ft | 340 kts | 345° |
| 2026-04-17 10:00 | 51.93050 | -0.63868 | 12774 ft | 345 kts | 343° |
| 2026-04-17 10:00 | 51.95408 | -0.64797 | 13520 ft | 351 kts | 342° |
| 2026-04-17 10:00 | 51.97785 | -0.65826 | 14213 ft | 356 kts | 340° |
| 2026-04-17 10:01 | 52.00167 | -0.66978 | 14868 ft | 360 kts | 339° |
| 2026-04-17 10:01 | 52.02570 | -0.68210 | 15513 ft | 364 kts | 338° |
| 2026-04-17 10:01 | 52.05002 | -0.69477 | 16170 ft | 369 kts | 338° |
| 2026-04-17 10:01 | 52.07457 | -0.70749 | 16824 ft | 373 kts | 338° |
| 2026-04-17 10:02 | 52.09952 | -0.72026 | 17477 ft | 378 kts | 338° |
| 2026-04-17 10:02 | 52.12448 | -0.73412 | 18128 ft | 379 kts | 332° |
| 2026-04-17 10:02 | 52.14780 | -0.75403 | 18721 ft | 378 kts | 323° |
| 2026-04-17 10:02 | 52.17040 | -0.77636 | 19306 ft | 382 kts | 323° |
| 2026-04-17 10:03 | 52.19319 | -0.79885 | 19906 ft | 384 kts | 323° |
| 2026-04-17 10:03 | 52.21614 | -0.82151 | 20516 ft | 387 kts | 322° |
| 2026-04-17 10:03 | 52.23922 | -0.84433 | 21121 ft | 389 kts | 322° |
| 2026-04-17 10:03 | 52.26245 | -0.86737 | 21722 ft | 392 kts | 322° |
| 2026-04-17 10:04 | 52.28586 | -0.89065 | 22310 ft | 395 kts | 322° |
| 2026-04-17 10:04 | 52.30944 | -0.91410 | 22894 ft | 398 kts | 321° |
| 2026-04-17 10:04 | 52.33311 | -0.93762 | 23487 ft | 400 kts | 321° |
| 2026-04-17 10:04 | 52.35679 | -0.96119 | 23987 ft | 403 kts | 321° |
| 2026-04-17 10:05 | 52.38083 | -0.98516 | 24458 ft | 405 kts | 321° |
| 2026-04-17 10:05 | 52.40494 | -1.00925 | 24936 ft | 407 kts | 321° |
| 2026-04-17 10:05 | 52.42918 | -1.03352 | 25390 ft | 409 kts | 321° |
| 2026-04-17 10:05 | 52.45348 | -1.05791 | 25840 ft | 411 kts | 321° |
| 2026-04-17 10:06 | 52.47794 | -1.08248 | 26282 ft | 413 kts | 321° |
| 2026-04-17 10:06 | 52.50253 | -1.10721 | 26723 ft | 415 kts | 321° |
| 2026-04-17 10:06 | 52.52721 | -1.13202 | 27166 ft | 417 kts | 321° |
| 2026-04-17 10:06 | 52.55197 | -1.15695 | 27589 ft | 419 kts | 321° |
| 2026-04-17 10:07 | 52.57692 | -1.18210 | 28017 ft | 421 kts | 320° |
| 2026-04-17 10:07 | 52.60195 | -1.20740 | 28448 ft | 423 kts | 320° |
| 2026-04-17 10:07 | 52.62659 | -1.23224 | 29225 ft | 414 kts | 320° |
| 2026-04-17 10:07 | 52.65097 | -1.25671 | 30081 ft | 408 kts | 320° |
| 2026-04-17 10:08 | 52.67509 | -1.28108 | 30581 ft | 407 kts | 320° |
| 2026-04-17 10:08 | 52.69918 | -1.30558 | 31006 ft | 407 kts | 320° |
| 2026-04-17 10:08 | 52.72329 | -1.33020 | 31427 ft | 408 kts | 319° |
| 2026-04-17 10:08 | 52.74753 | -1.35494 | 31889 ft | 409 kts | 319° |
| 2026-04-17 10:09 | 52.77166 | -1.37955 | 32055 ft | 407 kts | 319° |
| 2026-04-17 10:09 | 52.79573 | -1.40411 | 32089 ft | 406 kts | 319° |
| 2026-04-17 10:09 | 52.84373 | -1.45320 | 32086 ft | 405 kts | 319° |
| 2026-04-17 10:10 | 52.89167 | -1.50241 | 32086 ft | 405 kts | 319° |
| 2026-04-17 10:11 | 52.96351 | -1.57630 | 32079 ft | 405 kts | 319° |
| 2026-04-17 10:11 | 53.01141 | -1.62575 | 32087 ft | 405 kts | 319° |
| 2026-04-17 10:12 | 53.05923 | -1.67538 | 32086 ft | 405 kts | 319° |
| 2026-04-17 10:12 | 53.10710 | -1.72499 | 32084 ft | 405 kts | 319° |
| 2026-04-17 10:13 | 53.15495 | -1.77484 | 32081 ft | 405 kts | 318° |
| 2026-04-17 10:13 | 53.20274 | -1.82480 | 32074 ft | 405 kts | 318° |
| 2026-04-17 10:14 | 53.25057 | -1.87470 | 32067 ft | 407 kts | 319° |
| 2026-04-17 10:14 | 53.29955 | -1.92171 | 32072 ft | 409 kts | 321° |
| 2026-04-17 10:15 | 53.34947 | -1.96777 | 32066 ft | 410 kts | 321° |
| 2026-04-17 10:15 | 53.39952 | -2.01470 | 32069 ft | 409 kts | 321° |
| 2026-04-17 10:16 | 53.44875 | -2.06161 | 32071 ft | 409 kts | 320° |
| 2026-04-17 10:16 | 53.49825 | -2.10904 | 32076 ft | 410 kts | 320° |
| 2026-04-17 10:17 | 53.54771 | -2.15652 | 32064 ft | 409 kts | 320° |
| 2026-04-17 10:17 | 53.59126 | -2.21357 | 32055 ft | 386 kts | 302° |
| 2026-04-17 10:18 | 53.61903 | -2.28783 | 32046 ft | 367 kts | 284° |
| 2026-04-17 10:18 | 53.63748 | -2.36785 | 32037 ft | 366 kts | 283° |
| 2026-04-17 10:19 | 53.65578 | -2.44801 | 32014 ft | 367 kts | 283° |
| 2026-04-17 10:19 | 53.67412 | -2.52826 | 32014 ft | 367 kts | 283° |
| 2026-04-17 10:20 | 53.69239 | -2.60878 | 32017 ft | 368 kts | 283° |
| 2026-04-17 10:20 | 53.71064 | -2.68944 | 32027 ft | 368 kts | 283° |
| 2026-04-17 10:21 | 53.72885 | -2.77021 | 32017 ft | 367 kts | 283° |
| 2026-04-17 10:21 | 53.74680 | -2.85009 | 32014 ft | 366 kts | 283° |
| 2026-04-17 10:22 | 53.76483 | -2.93063 | 32011 ft | 366 kts | 282° |
| 2026-04-17 10:22 | 53.78276 | -3.01119 | 32008 ft | 366 kts | 282° |
| 2026-04-17 10:23 | 53.80065 | -3.09195 | 32013 ft | 367 kts | 282° |
| 2026-04-17 10:23 | 53.81850 | -3.17277 | 32016 ft | 367 kts | 282° |
| 2026-04-17 10:24 | 53.83633 | -3.25370 | 32004 ft | 367 kts | 282° |
| 2026-04-17 10:24 | 53.85412 | -3.33469 | 32004 ft | 367 kts | 282° |
| 2026-04-17 10:25 | 53.86883 | -3.40214 | 31997 ft | 367 kts | 282° |
| 2026-04-17 10:25 | 53.88646 | -3.48326 | 31984 ft | 367 kts | 282° |
| 2026-04-17 10:26 | 53.90419 | -3.56484 | 31964 ft | 369 kts | 282° |
| 2026-04-17 10:26 | 53.92188 | -3.64665 | 31964 ft | 370 kts | 282° |
| 2026-04-17 10:27 | 53.93954 | -3.72881 | 31962 ft | 370 kts | 282° |
| 2026-04-17 10:27 | 53.95715 | -3.81110 | 31964 ft | 371 kts | 283° |
| 2026-04-17 10:28 | 53.98193 | -3.88991 | 31965 ft | 380 kts | 291° |
| 2026-04-17 10:28 | 54.00822 | -3.96731 | 31968 ft | 381 kts | 291° |
| 2026-04-17 10:29 | 54.03458 | -4.04538 | 31963 ft | 381 kts | 291° |
| 2026-04-17 10:29 | 54.06089 | -4.12360 | 31955 ft | 382 kts | 292° |
| 2026-04-17 10:30 | 54.09197 | -4.19807 | 31852 ft | 390 kts | 301° |
| 2026-04-17 10:30 | 54.10954 | -4.23320 | 31338 ft | 388 kts | 301° |
| 2026-04-17 10:30 | 54.12722 | -4.26782 | 30846 ft | 386 kts | 302° |
| 2026-04-17 10:30 | 54.14485 | -4.30206 | 30345 ft | 383 kts | 302° |
| 2026-04-17 10:31 | 54.16240 | -4.33616 | 29830 ft | 381 kts | 302° |
| 2026-04-17 10:31 | 54.17972 | -4.37005 | 29267 ft | 378 kts | 302° |
| 2026-04-17 10:31 | 54.19691 | -4.40392 | 28746 ft | 375 kts | 302° |
| 2026-04-17 10:31 | 54.21392 | -4.43754 | 28233 ft | 372 kts | 302° |
| 2026-04-17 10:32 | 54.23077 | -4.47091 | 27736 ft | 370 kts | 302° |
| 2026-04-17 10:32 | 54.24753 | -4.50411 | 27263 ft | 368 kts | 302° |
| 2026-04-17 10:32 | 54.26418 | -4.53712 | 26808 ft | 365 kts | 302° |
| 2026-04-17 10:32 | 54.28073 | -4.56999 | 26373 ft | 363 kts | 302° |
| 2026-04-17 10:33 | 54.29698 | -4.60232 | 25939 ft | 361 kts | 302° |
| 2026-04-17 10:33 | 54.31329 | -4.63484 | 25485 ft | 359 kts | 302° |
| 2026-04-17 10:33 | 54.32953 | -4.66722 | 25056 ft | 357 kts | 302° |
| 2026-04-17 10:33 | 54.34562 | -4.69937 | 24612 ft | 354 kts | 302° |
| 2026-04-17 10:34 | 54.36161 | -4.73146 | 24165 ft | 352 kts | 302° |
| 2026-04-17 10:34 | 54.37746 | -4.76335 | 23720 ft | 350 kts | 303° |
| 2026-04-17 10:34 | 54.39324 | -4.79507 | 23254 ft | 348 kts | 303° |
| 2026-04-17 10:34 | 54.40891 | -4.82651 | 22756 ft | 346 kts | 303° |
| 2026-04-17 10:35 | 54.42449 | -4.85774 | 22270 ft | 343 kts | 303° |
| 2026-04-17 10:35 | 54.43996 | -4.88882 | 21808 ft | 341 kts | 303° |
| 2026-04-17 10:35 | 54.45527 | -4.91968 | 21369 ft | 338 kts | 303° |
| 2026-04-17 10:35 | 54.47042 | -4.95035 | 20924 ft | 336 kts | 303° |
| 2026-04-17 10:36 | 54.48548 | -4.98086 | 20482 ft | 333 kts | 303° |
| 2026-04-17 10:36 | 54.50044 | -5.01120 | 20053 ft | 331 kts | 303° |
| 2026-04-17 10:36 | 54.51530 | -5.04133 | 19631 ft | 329 kts | 303° |
| 2026-04-17 10:36 | 54.53009 | -5.07126 | 19217 ft | 327 kts | 303° |
| 2026-04-17 10:37 | 54.54476 | -5.10100 | 18807 ft | 325 kts | 303° |
| 2026-04-17 10:37 | 54.55936 | -5.13068 | 18407 ft | 324 kts | 303° |
| 2026-04-17 10:37 | 54.57383 | -5.16026 | 18000 ft | 322 kts | 303° |
| 2026-04-17 10:37 | 54.58821 | -5.18969 | 17563 ft | 320 kts | 303° |
| 2026-04-17 10:38 | 54.60230 | -5.21848 | 17144 ft | 318 kts | 303° |
| 2026-04-17 10:38 | 54.61656 | -5.24760 | 16739 ft | 316 kts | 303° |
| 2026-04-17 10:38 | 54.63070 | -5.27646 | 16329 ft | 314 kts | 303° |
| 2026-04-17 10:38 | 54.64474 | -5.30519 | 15935 ft | 313 kts | 303° |
| 2026-04-17 10:39 | 54.65871 | -5.33385 | 15547 ft | 311 kts | 303° |
| 2026-04-17 10:39 | 54.67259 | -5.36249 | 15088 ft | 312 kts | 303° |
| 2026-04-17 10:39 | 54.68668 | -5.39126 | 14595 ft | 316 kts | 306° |
| 2026-04-17 10:39 | 54.70462 | -5.41428 | 14104 ft | 330 kts | 326° |
| 2026-04-17 10:40 | 54.72549 | -5.43160 | 13512 ft | 336 kts | 329° |
| 2026-04-17 10:40 | 54.74685 | -5.44885 | 12833 ft | 340 kts | 329° |
| 2026-04-17 10:40 | 54.76838 | -5.46642 | 12173 ft | 343 kts | 329° |
| 2026-04-17 10:40 | 54.79001 | -5.48432 | 11526 ft | 345 kts | 329° |
| 2026-04-17 10:41 | 54.81213 | -5.50088 | 10881 ft | 352 kts | 339° |
| 2026-04-17 10:41 | 54.83645 | -5.50808 | 10264 ft | 356 kts | 348° |
| 2026-04-17 10:41 | 54.86070 | -5.51588 | 9639 ft | 351 kts | 336° |
| 2026-04-17 10:41 | 54.88134 | -5.53656 | 8962 ft | 338 kts | 312° |
| 2026-04-17 10:42 | 54.89424 | -5.56947 | 8306 ft | 327 kts | 289° |
| 2026-04-17 10:42 | 54.89984 | -5.60679 | 7920 ft | 311 kts | 272° |
| 2026-04-17 10:42 | 54.89862 | -5.64292 | 7773 ft | 291 kts | 255° |
| 2026-04-17 10:42 | 54.89148 | -5.67473 | 7566 ft | 277 kts | 238° |
| 2026-04-17 10:43 | 54.87962 | -5.70015 | 7367 ft | 267 kts | 222° |
| 2026-04-17 10:43 | 54.86431 | -5.71691 | 7186 ft | 258 kts | 198° |
| 2026-04-17 10:43 | 54.84699 | -5.72096 | 7109 ft | 242 kts | 188° |
| 2026-04-17 10:43 | 54.83094 | -5.72328 | 6970 ft | 221 kts | 188° |
| 2026-04-17 10:44 | 54.81620 | -5.72541 | 6847 ft | 205 kts | 188° |
| 2026-04-17 10:44 | 54.80237 | -5.72741 | 6726 ft | 194 kts | 189° |
| 2026-04-17 10:44 | 54.78928 | -5.72931 | 6588 ft | 184 kts | 189° |
| 2026-04-17 10:44 | 54.77691 | -5.73111 | 6473 ft | 173 kts | 189° |
| 2026-04-17 10:45 | 54.76517 | -5.73280 | 6238 ft | 164 kts | 189° |
| 2026-04-17 10:45 | 54.75398 | -5.73443 | 5774 ft | 156 kts | 189° |
| 2026-04-17 10:45 | 54.74346 | -5.73600 | 5377 ft | 152 kts | 191° |
| 2026-04-17 10:45 | 54.73330 | -5.74053 | 4862 ft | 147 kts | 204° |
| 2026-04-17 10:46 | 54.72426 | -5.74800 | 4305 ft | 146 kts | 211° |
| 2026-04-17 10:46 | 54.71556 | -5.75688 | 3746 ft | 145 kts | 214° |
| 2026-04-17 10:46 | 54.70714 | -5.76628 | 3200 ft | 143 kts | 215° |
| 2026-04-17 10:46 | 54.69886 | -5.77590 | 2645 ft | 142 kts | 215° |
| 2026-04-17 10:47 | 54.69075 | -5.78550 | 2126 ft | 141 kts | 215° |
| 2026-04-17 10:47 | 54.68280 | -5.79498 | 2007 ft | 135 kts | 215° |
| 2026-04-17 10:47 | 54.67541 | -5.80382 | 1893 ft | 123 kts | 215° |
| 2026-04-17 10:47 | 54.66844 | -5.81217 | 1496 ft | 122 kts | 214° |
| 2026-04-17 10:48 | 54.66150 | -5.82049 | 1120 ft | 121 kts | 215° |
| 2026-04-17 10:48 | 54.65455 | -5.82883 | 1020 ft | 121 kts | 214° |
| 2026-04-17 10:48 | 54.64753 | -5.83735 | 831 ft | 123 kts | 216° |
| 2026-04-17 10:48 | 54.64048 | -5.84582 | 562 ft | 126 kts | 214° |
| 2026-04-17 10:49 | 54.63328 | -5.85456 | 311 ft | 126 kts | 213° |
| 2026-04-17 10:49 | 54.62611 | -5.86317 | 111 ft | 124 kts | 212° |
| 2026-04-17 10:49 | 54.61936 | -5.87099 | 21 ft | 103 kts | 214° |
| 2026-04-17 10:49 | 54.61573 | -5.87529 | 19 ft | 46 kts | 215° |
| 2026-04-17 10:50 | 54.61361 | -5.87787 | 19 ft | 19 kts | 214° |
| 2026-04-17 10:50 | 54.61271 | -5.87694 | 19 ft | 5 kts | 124° |
| 2026-04-17 10:50 | 54.61267 | -5.87684 | 19 ft | 2 kts | 126° |
| 2026-04-17 10:50 | 54.61255 | -5.87656 | 18 ft | 4 kts | 124° |
| 2026-04-17 10:51 | 54.61255 | -5.87614 | 18 ft | 4 kts | 77° |
| 2026-04-17 10:51 | 54.61274 | -5.87575 | 18 ft | 5 kts | 40° |
| 2026-04-17 10:51 | 54.61310 | -5.87531 | 17 ft | 8 kts | 35° |
| 2026-04-17 10:51 | 54.61360 | -5.87471 | 17 ft | 9 kts | 34° |
| 2026-04-17 10:52 | 54.61402 | -5.87397 | 19 ft | 8 kts | 56° |
| 2026-04-17 10:52 | 54.61437 | -5.87336 | 20 ft | 7 kts | 39° |
| 2026-04-17 10:52 | 54.61480 | -5.87284 | 20 ft | 8 kts | 33° |
| 2026-04-17 10:52 | 54.61528 | -5.87229 | 21 ft | 8 kts | 35° |
| 2026-04-17 10:53 | 54.61530 | -5.87227 | 21 ft | 0 kts | 35° |
| 2026-04-17 10:53 | 54.61536 | -5.87218 | 21 ft | 2 kts | 41° |
| 2026-04-17 10:53 | 54.61541 | -5.87193 | 21 ft | 3 kts | 79° |
| 2026-04-17 10:54 | 54.61527 | -5.87168 | 21 ft | 4 kts | 153° |
| 2026-04-17 10:54 | 54.61504 | -5.87152 | 24 ft | 2 kts | 160° |
| 2026-04-17 10:54 | 54.61503 | -5.87152 | 24 ft | 0 kts | 160° |